sensor_id;sensor_type;location;lat;lon;timestamp;P1;durP1;ratioP1;P2;durP2;ratioP2
4563;SDS011;2294;51.818;8.484;2023-07-13T00:00:07;5.23;;;2.70;;
4563;SDS011;2294;51.818;8.484;2023-07-13T00:02:35;3.07;;;2.70;;
4563;SDS011;2294;51.818;8.484;2023-07-13T00:05:02;11.60;;;3.20;;
4563;SDS011;2294;51.818;8.484;2023-07-13T00:07:29;6.23;;;2.87;;
4563;SDS011;2294;51.818;8.484;2023-07-13T00:09:56;6.73;;;3.13;;
4563;SDS011;2294;51.818;8.484;2023-07-13T00:12:26;3.97;;;3.30;;
4563;SDS011;2294;51.818;8.484;2023-07-13T00:14:55;5.60;;;2.50;;
4563;SDS011;2294;51.818;8.484;2023-07-13T00:17:23;7.73;;;3.20;;
4563;SDS011;2294;51.818;8.484;2023-07-13T00:19:50;3.67;;;2.67;;
4563;SDS011;2294;51.818;8.484;2023-07-13T00:22:18;5.40;;;2.80;;
4563;SDS011;2294;51.818;8.484;2023-07-13T00:24:45;5.33;;;3.23;;
4563;SDS011;2294;51.818;8.484;2023-07-13T00:27:12;5.83;;;2.77;;
4563;SDS011;2294;51.818;8.484;2023-07-13T00:29:41;8.83;;;3.00;;
4563;SDS011;2294;51.818;8.484;2023-07-13T00:32:08;5.30;;;3.13;;
4563;SDS011;2294;51.818;8.484;2023-07-13T00:34:36;7.90;;;3.20;;
4563;SDS011;2294;51.818;8.484;2023-07-13T00:37:04;5.47;;;3.20;;
4563;SDS011;2294;51.818;8.484;2023-07-13T00:39:32;9.60;;;4.17;;
4563;SDS011;2294;51.818;8.484;2023-07-13T00:42:00;8.67;;;3.30;;
4563;SDS011;2294;51.818;8.484;2023-07-13T00:44:27;7.10;;;3.73;;
4563;SDS011;2294;51.818;8.484;2023-07-13T00:46:55;4.07;;;3.30;;
4563;SDS011;2294;51.818;8.484;2023-07-13T00:49:24;6.90;;;3.40;;
4563;SDS011;2294;51.818;8.484;2023-07-13T00:51:54;11.27;;;3.53;;
4563;SDS011;2294;51.818;8.484;2023-07-13T00:54:24;3.70;;;2.70;;
4563;SDS011;2294;51.818;8.484;2023-07-13T00:56:55;8.03;;;3.00;;
4563;SDS011;2294;51.818;8.484;2023-07-13T00:59:23;4.20;;;2.63;;
4563;SDS011;2294;51.818;8.484;2023-07-13T01:01:51;6.27;;;2.80;;
4563;SDS011;2294;51.818;8.484;2023-07-13T01:04:19;7.93;;;3.20;;
4563;SDS011;2294;51.818;8.484;2023-07-13T01:06:46;3.33;;;3.03;;
4563;SDS011;2294;51.818;8.484;2023-07-13T01:09:13;3.57;;;3.17;;
4563;SDS011;2294;51.818;8.484;2023-07-13T01:11:41;11.00;;;3.60;;
4563;SDS011;2294;51.818;8.484;2023-07-13T01:14:10;6.37;;;2.93;;
4563;SDS011;2294;51.818;8.484;2023-07-13T01:16:37;6.17;;;3.20;;
4563;SDS011;2294;51.818;8.484;2023-07-13T01:19:07;15.63;;;4.97;;
4563;SDS011;2294;51.818;8.484;2023-07-13T01:21:42;8.90;;;3.70;;
4563;SDS011;2294;51.818;8.484;2023-07-13T01:24:09;3.33;;;3.03;;
4563;SDS011;2294;51.818;8.484;2023-07-13T01:26:36;7.60;;;3.67;;
4563;SDS011;2294;51.818;8.484;2023-07-13T01:29:03;7.37;;;2.80;;
4563;SDS011;2294;51.818;8.484;2023-07-13T01:31:30;4.70;;;3.67;;
4563;SDS011;2294;51.818;8.484;2023-07-13T01:33:57;9.20;;;3.57;;
4563;SDS011;2294;51.818;8.484;2023-07-13T01:36:24;5.67;;;3.43;;
4563;SDS011;2294;51.818;8.484;2023-07-13T01:38:52;11.10;;;3.47;;
4563;SDS011;2294;51.818;8.484;2023-07-13T01:41:19;7.77;;;3.53;;
4563;SDS011;2294;51.818;8.484;2023-07-13T01:43:46;7.60;;;3.23;;
4563;SDS011;2294;51.818;8.484;2023-07-13T01:46:13;9.53;;;4.43;;
4563;SDS011;2294;51.818;8.484;2023-07-13T01:48:40;7.90;;;4.10;;
4563;SDS011;2294;51.818;8.484;2023-07-13T01:51:06;7.00;;;3.17;;
4563;SDS011;2294;51.818;8.484;2023-07-13T01:53:33;7.97;;;4.37;;
4563;SDS011;2294;51.818;8.484;2023-07-13T01:56:01;7.60;;;3.10;;
4563;SDS011;2294;51.818;8.484;2023-07-13T01:58:29;4.87;;;3.30;;
4563;SDS011;2294;51.818;8.484;2023-07-13T02:00:55;7.10;;;3.40;;
4563;SDS011;2294;51.818;8.484;2023-07-13T02:03:22;6.50;;;2.87;;
4563;SDS011;2294;51.818;8.484;2023-07-13T02:05:49;8.57;;;3.80;;
4563;SDS011;2294;51.818;8.484;2023-07-13T02:08:16;3.90;;;3.27;;
4563;SDS011;2294;51.818;8.484;2023-07-13T02:10:43;7.50;;;4.10;;
4563;SDS011;2294;51.818;8.484;2023-07-13T02:13:11;7.27;;;3.80;;
4563;SDS011;2294;51.818;8.484;2023-07-13T02:15:38;13.13;;;4.47;;
4563;SDS011;2294;51.818;8.484;2023-07-13T02:18:06;3.90;;;3.43;;
4563;SDS011;2294;51.818;8.484;2023-07-13T02:20:33;8.97;;;3.83;;
4563;SDS011;2294;51.818;8.484;2023-07-13T02:23:00;8.67;;;3.77;;
4563;SDS011;2294;51.818;8.484;2023-07-13T02:25:27;9.43;;;4.40;;
4563;SDS011;2294;51.818;8.484;2023-07-13T02:27:54;8.47;;;5.00;;
4563;SDS011;2294;51.818;8.484;2023-07-13T02:30:22;6.50;;;3.70;;
4563;SDS011;2294;51.818;8.484;2023-07-13T02:32:49;5.10;;;3.90;;
4563;SDS011;2294;51.818;8.484;2023-07-13T02:35:16;9.43;;;4.53;;
4563;SDS011;2294;51.818;8.484;2023-07-13T02:37:43;10.63;;;4.73;;
4563;SDS011;2294;51.818;8.484;2023-07-13T02:40:10;14.30;;;4.93;;
4563;SDS011;2294;51.818;8.484;2023-07-13T02:42:38;7.87;;;3.80;;
4563;SDS011;2294;51.818;8.484;2023-07-13T02:45:05;7.20;;;4.17;;
4563;SDS011;2294;51.818;8.484;2023-07-13T02:47:34;10.10;;;3.93;;
4563;SDS011;2294;51.818;8.484;2023-07-13T02:50:01;7.27;;;3.70;;
4563;SDS011;2294;51.818;8.484;2023-07-13T02:52:29;10.73;;;4.13;;
4563;SDS011;2294;51.818;8.484;2023-07-13T02:54:55;11.10;;;5.00;;
4563;SDS011;2294;51.818;8.484;2023-07-13T02:57:22;6.27;;;3.93;;
4563;SDS011;2294;51.818;8.484;2023-07-13T02:59:49;10.00;;;4.13;;
4563;SDS011;2294;51.818;8.484;2023-07-13T03:02:16;7.80;;;3.33;;
4563;SDS011;2294;51.818;8.484;2023-07-13T03:04:44;5.90;;;4.17;;
4563;SDS011;2294;51.818;8.484;2023-07-13T03:07:11;6.60;;;3.70;;
4563;SDS011;2294;51.818;8.484;2023-07-13T03:09:39;3.97;;;3.10;;
4563;SDS011;2294;51.818;8.484;2023-07-13T03:12:06;7.60;;;3.73;;
4563;SDS011;2294;51.818;8.484;2023-07-13T03:14:34;7.97;;;3.50;;
4563;SDS011;2294;51.818;8.484;2023-07-13T03:17:00;5.83;;;4.20;;
4563;SDS011;2294;51.818;8.484;2023-07-13T03:19:27;5.40;;;3.37;;
4563;SDS011;2294;51.818;8.484;2023-07-13T03:21:56;7.40;;;3.17;;
4563;SDS011;2294;51.818;8.484;2023-07-13T03:24:23;6.20;;;3.23;;
4563;SDS011;2294;51.818;8.484;2023-07-13T03:26:50;4.60;;;3.40;;
4563;SDS011;2294;51.818;8.484;2023-07-13T03:29:17;9.43;;;3.10;;
4563;SDS011;2294;51.818;8.484;2023-07-13T03:31:44;5.93;;;2.70;;
4563;SDS011;2294;51.818;8.484;2023-07-13T03:34:11;5.70;;;3.17;;
4563;SDS011;2294;51.818;8.484;2023-07-13T03:36:38;4.70;;;3.00;;
4563;SDS011;2294;51.818;8.484;2023-07-13T03:39:06;6.70;;;2.90;;
4563;SDS011;2294;51.818;8.484;2023-07-13T03:41:35;4.07;;;3.00;;
4563;SDS011;2294;51.818;8.484;2023-07-13T03:44:02;7.07;;;3.03;;
4563;SDS011;2294;51.818;8.484;2023-07-13T03:46:29;7.13;;;3.20;;
4563;SDS011;2294;51.818;8.484;2023-07-13T03:48:56;5.53;;;2.30;;
4563;SDS011;2294;51.818;8.484;2023-07-13T03:51:23;4.87;;;3.20;;
4563;SDS011;2294;51.818;8.484;2023-07-13T03:53:50;7.37;;;2.90;;
4563;SDS011;2294;51.818;8.484;2023-07-13T03:56:18;4.30;;;2.90;;
4563;SDS011;2294;51.818;8.484;2023-07-13T03:58:46;4.80;;;2.13;;
4563;SDS011;2294;51.818;8.484;2023-07-13T04:01:14;4.40;;;3.53;;
4563;SDS011;2294;51.818;8.484;2023-07-13T04:03:42;8.87;;;2.93;;
4563;SDS011;2294;51.818;8.484;2023-07-13T04:06:13;5.57;;;2.50;;
4563;SDS011;2294;51.818;8.484;2023-07-13T04:08:46;2.83;;;2.20;;
4563;SDS011;2294;51.818;8.484;2023-07-13T04:11:15;8.17;;;3.07;;
4563;SDS011;2294;51.818;8.484;2023-07-13T04:13:43;7.53;;;2.50;;
4563;SDS011;2294;51.818;8.484;2023-07-13T04:16:11;6.87;;;2.70;;
4563;SDS011;2294;51.818;8.484;2023-07-13T04:18:38;11.20;;;3.70;;
4563;SDS011;2294;51.818;8.484;2023-07-13T04:21:06;3.90;;;1.90;;
4563;SDS011;2294;51.818;8.484;2023-07-13T04:23:34;4.53;;;2.17;;
4563;SDS011;2294;51.818;8.484;2023-07-13T04:26:02;11.23;;;3.33;;
4563;SDS011;2294;51.818;8.484;2023-07-13T04:28:30;11.93;;;3.50;;
4563;SDS011;2294;51.818;8.484;2023-07-13T04:30:58;8.87;;;2.23;;
4563;SDS011;2294;51.818;8.484;2023-07-13T04:33:25;8.10;;;2.87;;
4563;SDS011;2294;51.818;8.484;2023-07-13T04:35:53;15.43;;;2.70;;
4563;SDS011;2294;51.818;8.484;2023-07-13T04:38:22;7.10;;;2.60;;
4563;SDS011;2294;51.818;8.484;2023-07-13T04:40:51;9.43;;;2.43;;
4563;SDS011;2294;51.818;8.484;2023-07-13T04:43:17;10.93;;;2.87;;
4563;SDS011;2294;51.818;8.484;2023-07-13T04:45:45;5.70;;;2.40;;
4563;SDS011;2294;51.818;8.484;2023-07-13T04:48:13;18.87;;;2.43;;
4563;SDS011;2294;51.818;8.484;2023-07-13T04:50:40;11.30;;;2.47;;
4563;SDS011;2294;51.818;8.484;2023-07-13T04:53:08;13.90;;;2.70;;
4563;SDS011;2294;51.818;8.484;2023-07-13T04:55:35;5.83;;;2.10;;
4563;SDS011;2294;51.818;8.484;2023-07-13T04:58:02;3.00;;;1.80;;
4563;SDS011;2294;51.818;8.484;2023-07-13T05:00:30;4.53;;;2.77;;
4563;SDS011;2294;51.818;8.484;2023-07-13T05:02:57;6.50;;;2.50;;
4563;SDS011;2294;51.818;8.484;2023-07-13T05:05:26;20.13;;;3.90;;
4563;SDS011;2294;51.818;8.484;2023-07-13T05:07:54;9.73;;;2.63;;
4563;SDS011;2294;51.818;8.484;2023-07-13T05:10:21;11.30;;;2.60;;
4563;SDS011;2294;51.818;8.484;2023-07-13T05:12:48;2.40;;;1.60;;
4563;SDS011;2294;51.818;8.484;2023-07-13T05:15:15;3.77;;;1.73;;
4563;SDS011;2294;51.818;8.484;2023-07-13T05:17:46;5.20;;;1.80;;
4563;SDS011;2294;51.818;8.484;2023-07-13T05:20:13;10.50;;;2.33;;
4563;SDS011;2294;51.818;8.484;2023-07-13T05:22:41;6.00;;;2.17;;
4563;SDS011;2294;51.818;8.484;2023-07-13T05:25:08;10.03;;;2.50;;
4563;SDS011;2294;51.818;8.484;2023-07-13T05:27:36;6.23;;;1.63;;
4563;SDS011;2294;51.818;8.484;2023-07-13T05:30:03;5.33;;;1.60;;
4563;SDS011;2294;51.818;8.484;2023-07-13T05:32:31;19.13;;;2.47;;
4563;SDS011;2294;51.818;8.484;2023-07-13T05:34:59;3.50;;;1.77;;
4563;SDS011;2294;51.818;8.484;2023-07-13T05:37:26;5.10;;;1.90;;
4563;SDS011;2294;51.818;8.484;2023-07-13T05:39:54;8.93;;;2.07;;
4563;SDS011;2294;51.818;8.484;2023-07-13T05:42:21;5.17;;;2.30;;
4563;SDS011;2294;51.818;8.484;2023-07-13T05:44:48;10.53;;;2.07;;
4563;SDS011;2294;51.818;8.484;2023-07-13T05:47:15;5.47;;;1.67;;
4563;SDS011;2294;51.818;8.484;2023-07-13T05:49:42;12.23;;;1.83;;
4563;SDS011;2294;51.818;8.484;2023-07-13T05:52:09;6.80;;;2.30;;
4563;SDS011;2294;51.818;8.484;2023-07-13T05:54:36;8.67;;;1.83;;
4563;SDS011;2294;51.818;8.484;2023-07-13T05:57:04;6.27;;;2.03;;
4563;SDS011;2294;51.818;8.484;2023-07-13T05:59:31;9.33;;;2.20;;
4563;SDS011;2294;51.818;8.484;2023-07-13T06:01:58;16.50;;;3.90;;
4563;SDS011;2294;51.818;8.484;2023-07-13T06:04:25;8.90;;;2.53;;
4563;SDS011;2294;51.818;8.484;2023-07-13T06:06:52;5.57;;;2.37;;
4563;SDS011;2294;51.818;8.484;2023-07-13T06:09:19;2.27;;;1.90;;
4563;SDS011;2294;51.818;8.484;2023-07-13T06:11:46;5.77;;;1.90;;
4563;SDS011;2294;51.818;8.484;2023-07-13T06:14:14;6.30;;;1.87;;
4563;SDS011;2294;51.818;8.484;2023-07-13T06:16:41;3.30;;;1.70;;
4563;SDS011;2294;51.818;8.484;2023-07-13T06:19:08;4.47;;;1.60;;
4563;SDS011;2294;51.818;8.484;2023-07-13T06:21:35;3.33;;;1.90;;
4563;SDS011;2294;51.818;8.484;2023-07-13T06:24:02;5.17;;;2.30;;
4563;SDS011;2294;51.818;8.484;2023-07-13T06:26:29;4.47;;;2.20;;
4563;SDS011;2294;51.818;8.484;2023-07-13T06:28:57;9.07;;;2.33;;
4563;SDS011;2294;51.818;8.484;2023-07-13T06:31:25;6.40;;;2.40;;
4563;SDS011;2294;51.818;8.484;2023-07-13T06:33:52;6.67;;;2.50;;
4563;SDS011;2294;51.818;8.484;2023-07-13T06:36:18;5.53;;;2.63;;
4563;SDS011;2294;51.818;8.484;2023-07-13T06:38:45;9.63;;;2.20;;
4563;SDS011;2294;51.818;8.484;2023-07-13T06:41:12;4.40;;;2.43;;
4563;SDS011;2294;51.818;8.484;2023-07-13T06:43:39;4.30;;;2.20;;
4563;SDS011;2294;51.818;8.484;2023-07-13T06:46:06;10.07;;;2.53;;
4563;SDS011;2294;51.818;8.484;2023-07-13T06:48:34;8.67;;;2.30;;
4563;SDS011;2294;51.818;8.484;2023-07-13T06:51:02;9.13;;;2.20;;
4563;SDS011;2294;51.818;8.484;2023-07-13T06:53:29;13.53;;;2.93;;
4563;SDS011;2294;51.818;8.484;2023-07-13T06:55:56;8.80;;;2.93;;
4563;SDS011;2294;51.818;8.484;2023-07-13T06:58:23;8.10;;;2.60;;
4563;SDS011;2294;51.818;8.484;2023-07-13T07:00:50;5.93;;;2.40;;
4563;SDS011;2294;51.818;8.484;2023-07-13T07:03:18;7.30;;;2.53;;
4563;SDS011;2294;51.818;8.484;2023-07-13T07:05:46;15.23;;;2.63;;
4563;SDS011;2294;51.818;8.484;2023-07-13T07:08:13;10.10;;;2.53;;
4563;SDS011;2294;51.818;8.484;2023-07-13T07:10:40;5.90;;;2.50;;
4563;SDS011;2294;51.818;8.484;2023-07-13T07:13:07;11.63;;;2.17;;
4563;SDS011;2294;51.818;8.484;2023-07-13T07:15:35;7.80;;;2.37;;
4563;SDS011;2294;51.818;8.484;2023-07-13T07:18:02;6.53;;;2.47;;
4563;SDS011;2294;51.818;8.484;2023-07-13T07:20:29;11.60;;;2.77;;
4563;SDS011;2294;51.818;8.484;2023-07-13T07:22:59;10.03;;;3.03;;
4563;SDS011;2294;51.818;8.484;2023-07-13T07:25:26;5.43;;;2.17;;
4563;SDS011;2294;51.818;8.484;2023-07-13T07:27:56;5.87;;;2.00;;
4563;SDS011;2294;51.818;8.484;2023-07-13T07:30:23;7.47;;;2.77;;
4563;SDS011;2294;51.818;8.484;2023-07-13T07:32:50;5.60;;;2.20;;
4563;SDS011;2294;51.818;8.484;2023-07-13T07:35:17;6.17;;;3.10;;
4563;SDS011;2294;51.818;8.484;2023-07-13T07:37:44;8.50;;;2.57;;
4563;SDS011;2294;51.818;8.484;2023-07-13T07:40:12;7.07;;;2.30;;
4563;SDS011;2294;51.818;8.484;2023-07-13T07:42:39;10.27;;;2.50;;
4563;SDS011;2294;51.818;8.484;2023-07-13T07:45:06;12.20;;;2.67;;
4563;SDS011;2294;51.818;8.484;2023-07-13T07:47:36;12.30;;;3.53;;
4563;SDS011;2294;51.818;8.484;2023-07-13T07:50:03;4.70;;;2.27;;
4563;SDS011;2294;51.818;8.484;2023-07-13T07:52:30;12.40;;;2.87;;
4563;SDS011;2294;51.818;8.484;2023-07-13T07:54:57;14.00;;;2.70;;
4563;SDS011;2294;51.818;8.484;2023-07-13T07:57:26;18.00;;;3.20;;
4563;SDS011;2294;51.818;8.484;2023-07-13T07:59:52;15.40;;;3.07;;
4563;SDS011;2294;51.818;8.484;2023-07-13T08:02:21;4.73;;;2.50;;
4563;SDS011;2294;51.818;8.484;2023-07-13T08:04:48;6.67;;;2.70;;
4563;SDS011;2294;51.818;8.484;2023-07-13T08:07:14;5.80;;;2.67;;
4563;SDS011;2294;51.818;8.484;2023-07-13T08:09:41;10.73;;;3.03;;
4563;SDS011;2294;51.818;8.484;2023-07-13T08:12:08;7.10;;;2.80;;
4563;SDS011;2294;51.818;8.484;2023-07-13T08:14:37;6.53;;;3.30;;
4563;SDS011;2294;51.818;8.484;2023-07-13T08:17:04;5.97;;;2.30;;
4563;SDS011;2294;51.818;8.484;2023-07-13T08:19:31;7.13;;;3.23;;
4563;SDS011;2294;51.818;8.484;2023-07-13T08:21:58;9.00;;;2.70;;
4563;SDS011;2294;51.818;8.484;2023-07-13T08:24:25;5.30;;;2.63;;
4563;SDS011;2294;51.818;8.484;2023-07-13T08:26:52;10.67;;;3.17;;
4563;SDS011;2294;51.818;8.484;2023-07-13T08:29:19;5.80;;;3.03;;
4563;SDS011;2294;51.818;8.484;2023-07-13T08:31:48;8.70;;;3.00;;
4563;SDS011;2294;51.818;8.484;2023-07-13T08:34:15;10.07;;;3.60;;
4563;SDS011;2294;51.818;8.484;2023-07-13T08:36:42;11.23;;;2.73;;
4563;SDS011;2294;51.818;8.484;2023-07-13T08:39:09;10.90;;;2.77;;
4563;SDS011;2294;51.818;8.484;2023-07-13T08:41:37;7.43;;;3.23;;
4563;SDS011;2294;51.818;8.484;2023-07-13T08:44:04;9.20;;;2.77;;
4563;SDS011;2294;51.818;8.484;2023-07-13T08:46:44;7.60;;;3.07;;
4563;SDS011;2294;51.818;8.484;2023-07-13T08:49:16;9.67;;;3.43;;
4563;SDS011;2294;51.818;8.484;2023-07-13T08:51:49;5.20;;;2.60;;
4563;SDS011;2294;51.818;8.484;2023-07-13T08:54:20;6.97;;;3.00;;
4563;SDS011;2294;51.818;8.484;2023-07-13T08:56:52;11.83;;;2.60;;
4563;SDS011;2294;51.818;8.484;2023-07-13T08:59:22;8.70;;;2.63;;
4563;SDS011;2294;51.818;8.484;2023-07-13T09:01:57;10.33;;;3.07;;
4563;SDS011;2294;51.818;8.484;2023-07-13T09:04:37;7.17;;;2.30;;
4563;SDS011;2294;51.818;8.484;2023-07-13T09:07:11;7.07;;;2.67;;
4563;SDS011;2294;51.818;8.484;2023-07-13T09:09:52;8.37;;;2.80;;
4563;SDS011;2294;51.818;8.484;2023-07-13T09:12:31;17.57;;;2.50;;
4563;SDS011;2294;51.818;8.484;2023-07-13T09:15:06;11.20;;;2.40;;
4563;SDS011;2294;51.818;8.484;2023-07-13T09:17:49;6.67;;;2.40;;
4563;SDS011;2294;51.818;8.484;2023-07-13T09:20:19;6.70;;;2.40;;
4563;SDS011;2294;51.818;8.484;2023-07-13T09:22:51;8.80;;;3.13;;
4563;SDS011;2294;51.818;8.484;2023-07-13T09:25:22;5.47;;;2.10;;
4563;SDS011;2294;51.818;8.484;2023-07-13T09:27:53;10.40;;;2.70;;
4563;SDS011;2294;51.818;8.484;2023-07-13T09:30:27;7.47;;;2.33;;
4563;SDS011;2294;51.818;8.484;2023-07-13T09:33:01;8.03;;;2.90;;
4563;SDS011;2294;51.818;8.484;2023-07-13T09:35:29;9.97;;;2.13;;
4563;SDS011;2294;51.818;8.484;2023-07-13T09:37:58;16.97;;;3.53;;
4563;SDS011;2294;51.818;8.484;2023-07-13T09:40:28;3.57;;;1.93;;
4563;SDS011;2294;51.818;8.484;2023-07-13T09:43:10;8.60;;;2.87;;
4563;SDS011;2294;51.818;8.484;2023-07-13T09:45:41;6.13;;;2.20;;
4563;SDS011;2294;51.818;8.484;2023-07-13T09:48:14;6.30;;;2.37;;
4563;SDS011;2294;51.818;8.484;2023-07-13T09:50:42;6.90;;;2.97;;
4563;SDS011;2294;51.818;8.484;2023-07-13T09:53:13;6.10;;;2.40;;
4563;SDS011;2294;51.818;8.484;2023-07-13T09:55:42;6.53;;;2.60;;
4563;SDS011;2294;51.818;8.484;2023-07-13T09:58:11;9.57;;;2.60;;
4563;SDS011;2294;51.818;8.484;2023-07-13T10:00:40;6.20;;;2.70;;
4563;SDS011;2294;51.818;8.484;2023-07-13T10:03:19;5.70;;;2.50;;
4563;SDS011;2294;51.818;8.484;2023-07-13T10:05:48;4.13;;;2.27;;
4563;SDS011;2294;51.818;8.484;2023-07-13T10:08:18;6.20;;;2.37;;
4563;SDS011;2294;51.818;8.484;2023-07-13T10:10:51;7.93;;;2.80;;
4563;SDS011;2294;51.818;8.484;2023-07-13T10:13:27;2.80;;;2.23;;
4563;SDS011;2294;51.818;8.484;2023-07-13T10:15:57;7.10;;;2.00;;
4563;SDS011;2294;51.818;8.484;2023-07-13T10:18:27;5.27;;;2.47;;
4563;SDS011;2294;51.818;8.484;2023-07-13T10:21:08;8.30;;;2.40;;
4563;SDS011;2294;51.818;8.484;2023-07-13T10:23:38;5.57;;;2.57;;
4563;SDS011;2294;51.818;8.484;2023-07-13T10:26:09;8.50;;;2.83;;
4563;SDS011;2294;51.818;8.484;2023-07-13T10:28:42;5.50;;;1.80;;
4563;SDS011;2294;51.818;8.484;2023-07-13T10:31:15;5.57;;;2.20;;
4563;SDS011;2294;51.818;8.484;2023-07-13T10:33:44;8.40;;;2.73;;
4563;SDS011;2294;51.818;8.484;2023-07-13T10:36:12;8.80;;;2.40;;
4563;SDS011;2294;51.818;8.484;2023-07-13T10:38:43;14.10;;;2.37;;
4563;SDS011;2294;51.818;8.484;2023-07-13T10:41:14;6.43;;;2.23;;
4563;SDS011;2294;51.818;8.484;2023-07-13T10:43:45;3.40;;;2.00;;
4563;SDS011;2294;51.818;8.484;2023-07-13T10:46:16;3.97;;;2.03;;
4563;SDS011;2294;51.818;8.484;2023-07-13T10:48:47;12.03;;;2.70;;
4563;SDS011;2294;51.818;8.484;2023-07-13T10:51:17;5.90;;;2.40;;
4563;SDS011;2294;51.818;8.484;2023-07-13T10:53:46;4.47;;;2.00;;
4563;SDS011;2294;51.818;8.484;2023-07-13T10:56:34;5.13;;;2.23;;
4563;SDS011;2294;51.818;8.484;2023-07-13T10:59:02;7.67;;;2.40;;
4563;SDS011;2294;51.818;8.484;2023-07-13T11:01:40;5.93;;;2.03;;
4563;SDS011;2294;51.818;8.484;2023-07-13T11:04:14;6.90;;;2.37;;
4563;SDS011;2294;51.818;8.484;2023-07-13T11:06:42;4.60;;;2.13;;
4563;SDS011;2294;51.818;8.484;2023-07-13T11:09:25;4.70;;;2.43;;
4563;SDS011;2294;51.818;8.484;2023-07-13T11:11:58;4.57;;;2.27;;
4563;SDS011;2294;51.818;8.484;2023-07-13T11:14:27;4.40;;;1.93;;
4563;SDS011;2294;51.818;8.484;2023-07-13T11:16:56;5.37;;;2.07;;
4563;SDS011;2294;51.818;8.484;2023-07-13T11:19:38;2.87;;;1.73;;
4563;SDS011;2294;51.818;8.484;2023-07-13T11:22:11;4.63;;;1.90;;
4563;SDS011;2294;51.818;8.484;2023-07-13T11:24:50;6.60;;;2.30;;
4563;SDS011;2294;51.818;8.484;2023-07-13T11:27:22;5.47;;;2.10;;
4563;SDS011;2294;51.818;8.484;2023-07-13T11:33:02;4.13;;;1.80;;
4563;SDS011;2294;51.818;8.484;2023-07-13T11:35:46;5.00;;;1.97;;
4563;SDS011;2294;51.818;8.484;2023-07-13T11:38:20;5.77;;;2.00;;
4563;SDS011;2294;51.818;8.484;2023-07-13T11:40:50;6.40;;;2.20;;
4563;SDS011;2294;51.818;8.484;2023-07-13T11:43:20;5.20;;;2.00;;
4563;SDS011;2294;51.818;8.484;2023-07-13T11:45:49;2.97;;;1.93;;
4563;SDS011;2294;51.818;8.484;2023-07-13T11:48:28;4.50;;;1.97;;
4563;SDS011;2294;51.818;8.484;2023-07-13T11:50:58;5.03;;;2.20;;
4563;SDS011;2294;51.818;8.484;2023-07-13T11:53:31;9.23;;;2.57;;
4563;SDS011;2294;51.818;8.484;2023-07-13T11:56:04;5.07;;;2.03;;
4563;SDS011;2294;51.818;8.484;2023-07-13T11:58:32;4.30;;;2.23;;
4563;SDS011;2294;51.818;8.484;2023-07-13T12:01:00;3.37;;;1.73;;
4563;SDS011;2294;51.818;8.484;2023-07-13T12:03:30;4.40;;;1.90;;
4563;SDS011;2294;51.818;8.484;2023-07-13T12:06:00;5.77;;;1.80;;
4563;SDS011;2294;51.818;8.484;2023-07-13T12:08:31;7.30;;;2.43;;
4563;SDS011;2294;51.818;8.484;2023-07-13T12:11:04;2.13;;;1.60;;
4563;SDS011;2294;51.818;8.484;2023-07-13T12:13:37;5.83;;;2.90;;
4563;SDS011;2294;51.818;8.484;2023-07-13T12:16:11;5.40;;;2.13;;
4563;SDS011;2294;51.818;8.484;2023-07-13T12:18:40;6.67;;;2.03;;
4563;SDS011;2294;51.818;8.484;2023-07-13T12:21:14;17.93;;;2.77;;
4563;SDS011;2294;51.818;8.484;2023-07-13T12:23:44;8.13;;;2.43;;
4563;SDS011;2294;51.818;8.484;2023-07-13T12:26:14;6.17;;;1.73;;
4563;SDS011;2294;51.818;8.484;2023-07-13T12:28:45;4.93;;;1.80;;
4563;SDS011;2294;51.818;8.484;2023-07-13T12:31:24;9.60;;;2.90;;
4563;SDS011;2294;51.818;8.484;2023-07-13T12:33:56;10.20;;;2.40;;
4563;SDS011;2294;51.818;8.484;2023-07-13T12:36:25;4.00;;;2.13;;
4563;SDS011;2294;51.818;8.484;2023-07-13T12:38:56;12.33;;;3.03;;
4563;SDS011;2294;51.818;8.484;2023-07-13T12:41:29;4.70;;;2.17;;
4563;SDS011;2294;51.818;8.484;2023-07-13T12:43:56;12.57;;;2.20;;
4563;SDS011;2294;51.818;8.484;2023-07-13T12:46:24;9.63;;;4.03;;
4563;SDS011;2294;51.818;8.484;2023-07-13T12:48:54;4.43;;;2.20;;
4563;SDS011;2294;51.818;8.484;2023-07-13T12:51:25;9.13;;;2.43;;
4563;SDS011;2294;51.818;8.484;2023-07-13T12:53:57;14.23;;;3.83;;
4563;SDS011;2294;51.818;8.484;2023-07-13T12:56:31;7.93;;;2.73;;
4563;SDS011;2294;51.818;8.484;2023-07-13T12:59:02;4.00;;;2.53;;
4563;SDS011;2294;51.818;8.484;2023-07-13T13:01:32;14.03;;;3.30;;
4563;SDS011;2294;51.818;8.484;2023-07-13T13:04:02;6.53;;;3.00;;
4563;SDS011;2294;51.818;8.484;2023-07-13T13:06:33;4.43;;;2.70;;
4563;SDS011;2294;51.818;8.484;2023-07-13T13:09:01;3.50;;;2.40;;
4563;SDS011;2294;51.818;8.484;2023-07-13T13:11:29;5.80;;;2.37;;
4563;SDS011;2294;51.818;8.484;2023-07-13T13:13:57;3.70;;;2.10;;
4563;SDS011;2294;51.818;8.484;2023-07-13T13:16:29;4.90;;;2.10;;
4563;SDS011;2294;51.818;8.484;2023-07-13T13:18:58;4.93;;;2.03;;
4563;SDS011;2294;51.818;8.484;2023-07-13T13:21:27;4.90;;;1.87;;
4563;SDS011;2294;51.818;8.484;2023-07-13T13:23:56;5.07;;;1.97;;
4563;SDS011;2294;51.818;8.484;2023-07-13T13:26:23;9.27;;;2.50;;
4563;SDS011;2294;51.818;8.484;2023-07-13T13:28:51;11.70;;;2.37;;
4563;SDS011;2294;51.818;8.484;2023-07-13T13:31:18;4.27;;;2.13;;
4563;SDS011;2294;51.818;8.484;2023-07-13T13:33:45;7.83;;;2.60;;
4563;SDS011;2294;51.818;8.484;2023-07-13T13:36:16;7.00;;;2.33;;
4563;SDS011;2294;51.818;8.484;2023-07-13T13:38:45;6.60;;;1.83;;
4563;SDS011;2294;51.818;8.484;2023-07-13T13:41:14;6.60;;;2.57;;
4563;SDS011;2294;51.818;8.484;2023-07-13T13:43:41;4.77;;;1.83;;
4563;SDS011;2294;51.818;8.484;2023-07-13T13:46:12;4.00;;;2.10;;
4563;SDS011;2294;51.818;8.484;2023-07-13T13:48:41;6.03;;;2.20;;
4563;SDS011;2294;51.818;8.484;2023-07-13T13:51:12;4.73;;;2.67;;
4563;SDS011;2294;51.818;8.484;2023-07-13T13:53:41;4.00;;;1.90;;
4563;SDS011;2294;51.818;8.484;2023-07-13T13:56:08;9.07;;;2.53;;
4563;SDS011;2294;51.818;8.484;2023-07-13T13:58:37;8.00;;;2.23;;
4563;SDS011;2294;51.818;8.484;2023-07-13T14:01:03;2.60;;;1.70;;
4563;SDS011;2294;51.818;8.484;2023-07-13T14:03:33;4.60;;;1.90;;
4563;SDS011;2294;51.818;8.484;2023-07-13T14:06:01;5.63;;;2.10;;
4563;SDS011;2294;51.818;8.484;2023-07-13T14:08:28;9.40;;;2.37;;
4563;SDS011;2294;51.818;8.484;2023-07-13T14:10:55;24.07;;;3.30;;
4563;SDS011;2294;51.818;8.484;2023-07-13T14:13:25;22.80;;;2.90;;
4563;SDS011;2294;51.818;8.484;2023-07-13T14:15:55;3.80;;;2.23;;
4563;SDS011;2294;51.818;8.484;2023-07-13T14:18:24;5.10;;;1.70;;
4563;SDS011;2294;51.818;8.484;2023-07-13T14:20:51;3.83;;;2.07;;
4563;SDS011;2294;51.818;8.484;2023-07-13T14:23:18;7.40;;;2.20;;
4563;SDS011;2294;51.818;8.484;2023-07-13T14:25:45;3.20;;;2.23;;
4563;SDS011;2294;51.818;8.484;2023-07-13T14:28:17;7.53;;;2.27;;
4563;SDS011;2294;51.818;8.484;2023-07-13T14:30:48;8.80;;;2.30;;
4563;SDS011;2294;51.818;8.484;2023-07-13T14:33:17;6.40;;;2.73;;
4563;SDS011;2294;51.818;8.484;2023-07-13T14:35:44;16.70;;;3.10;;
4563;SDS011;2294;51.818;8.484;2023-07-13T14:38:12;3.60;;;2.70;;
4563;SDS011;2294;51.818;8.484;2023-07-13T14:40:41;6.20;;;3.20;;
4563;SDS011;2294;51.818;8.484;2023-07-13T14:43:10;9.60;;;3.00;;
4563;SDS011;2294;51.818;8.484;2023-07-13T14:45:38;10.57;;;3.00;;
4563;SDS011;2294;51.818;8.484;2023-07-13T14:48:13;8.57;;;2.50;;
4563;SDS011;2294;51.818;8.484;2023-07-13T14:50:45;6.97;;;2.80;;
4563;SDS011;2294;51.818;8.484;2023-07-13T14:53:13;8.77;;;2.53;;
4563;SDS011;2294;51.818;8.484;2023-07-13T14:55:40;8.60;;;2.90;;
4563;SDS011;2294;51.818;8.484;2023-07-13T14:58:08;3.47;;;2.23;;
4563;SDS011;2294;51.818;8.484;2023-07-13T15:00:35;7.50;;;1.90;;
4563;SDS011;2294;51.818;8.484;2023-07-13T15:03:03;2.50;;;2.13;;
4563;SDS011;2294;51.818;8.484;2023-07-13T15:05:31;4.50;;;2.40;;
4563;SDS011;2294;51.818;8.484;2023-07-13T15:08:01;3.60;;;2.20;;
4563;SDS011;2294;51.818;8.484;2023-07-13T15:10:30;6.27;;;2.67;;
4563;SDS011;2294;51.818;8.484;2023-07-13T15:12:59;3.70;;;2.77;;
4563;SDS011;2294;51.818;8.484;2023-07-13T15:15:28;5.57;;;2.50;;
4563;SDS011;2294;51.818;8.484;2023-07-13T15:17:58;2.60;;;1.90;;
4563;SDS011;2294;51.818;8.484;2023-07-13T15:20:27;3.50;;;2.13;;
4563;SDS011;2294;51.818;8.484;2023-07-13T15:22:55;2.73;;;2.50;;
4563;SDS011;2294;51.818;8.484;2023-07-13T15:25:26;6.20;;;2.73;;